sensor_id;sensor_type;location;lat;lon;timestamp;temperature;humidity
77467;DHT22;66564;42.482;25.548;2023-11-21T00:00:00;9.70;53.89
77467;DHT22;66564;42.482;25.548;2023-11-21T00:02:26;9.71;53.98
77467;DHT22;66564;42.482;25.548;2023-11-21T00:04:52;9.62;54.17
77467;DHT22;66564;42.482;25.548;2023-11-21T00:07:18;9.61;54.42
77467;DHT22;66564;42.482;25.548;2023-11-21T00:09:43;9.58;54.24
77467;DHT22;66564;42.482;25.548;2023-11-21T00:12:09;9.52;54.52
77467;DHT22;66564;42.482;25.548;2023-11-21T00:14:39;9.57;54.71
77467;DHT22;66564;42.482;25.548;2023-11-21T00:17:07;9.57;54.65
77467;DHT22;66564;42.482;25.548;2023-11-21T00:19:33;9.57;54.40
77467;DHT22;66564;42.482;25.548;2023-11-21T00:22:00;9.65;54.43
77467;DHT22;66564;42.482;25.548;2023-11-21T00:24:25;9.70;54.23
77467;DHT22;66564;42.482;25.548;2023-11-21T00:26:51;9.74;54.31
77467;DHT22;66564;42.482;25.548;2023-11-21T00:29:16;9.73;54.25
77467;DHT22;66564;42.482;25.548;2023-11-21T00:31:44;9.78;54.23
77467;DHT22;66564;42.482;25.548;2023-11-21T00:34:11;9.78;54.06
77467;DHT22;66564;42.482;25.548;2023-11-21T00:36:36;9.81;53.98
77467;DHT22;66564;42.482;25.548;2023-11-21T00:39:02;9.82;53.92
77467;DHT22;66564;42.482;25.548;2023-11-21T00:41:28;9.86;53.89
77467;DHT22;66564;42.482;25.548;2023-11-21T00:43:53;9.86;53.66
77467;DHT22;66564;42.482;25.548;2023-11-21T00:46:20;9.89;53.68
77467;DHT22;66564;42.482;25.548;2023-11-21T00:48:45;9.86;53.81
77467;DHT22;66564;42.482;25.548;2023-11-21T00:51:11;9.89;53.65
77467;DHT22;66564;42.482;25.548;2023-11-21T00:53:36;9.95;53.34
77467;DHT22;66564;42.482;25.548;2023-11-21T00:56:02;9.91;53.38
77467;DHT22;66564;42.482;25.548;2023-11-21T00:58:28;9.84;53.61
77467;DHT22;66564;42.482;25.548;2023-11-21T01:00:53;9.82;53.70
77467;DHT22;66564;42.482;25.548;2023-11-21T01:03:19;9.81;53.62
77467;DHT22;66564;42.482;25.548;2023-11-21T01:05:45;9.82;53.72
77467;DHT22;66564;42.482;25.548;2023-11-21T01:08:11;9.82;53.78
77467;DHT22;66564;42.482;25.548;2023-11-21T01:10:36;9.85;53.89
77467;DHT22;66564;42.482;25.548;2023-11-21T01:13:03;9.88;53.68
77467;DHT22;66564;42.482;25.548;2023-11-21T01:15:30;9.86;53.81
77467;DHT22;66564;42.482;25.548;2023-11-21T01:17:55;9.88;53.81
77467;DHT22;66564;42.482;25.548;2023-11-21T01:20:21;9.89;53.70
77467;DHT22;66564;42.482;25.548;2023-11-21T01:22:46;9.91;53.75
77467;DHT22;66564;42.482;25.548;2023-11-21T01:25:14;9.86;53.82
77467;DHT22;66564;42.482;25.548;2023-11-21T01:27:39;9.79;54.26
77467;DHT22;66564;42.482;25.548;2023-11-21T01:30:05;9.78;54.11
77467;DHT22;66564;42.482;25.548;2023-11-21T01:32:33;9.78;54.15
77467;DHT22;66564;42.482;25.548;2023-11-21T01:34:59;9.79;54.12
77467;DHT22;66564;42.482;25.548;2023-11-21T01:37:25;9.81;54.11
77467;DHT22;66564;42.482;25.548;2023-11-21T01:39:55;9.79;54.21
77467;DHT22;66564;42.482;25.548;2023-11-21T01:42:21;9.77;54.30
77467;DHT22;66564;42.482;25.548;2023-11-21T01:44:47;9.77;54.30
77467;DHT22;66564;42.482;25.548;2023-11-21T01:47:13;9.77;54.40
77467;DHT22;66564;42.482;25.548;2023-11-21T01:49:39;9.75;54.31
77467;DHT22;66564;42.482;25.548;2023-11-21T01:52:08;9.73;54.32
77467;DHT22;66564;42.482;25.548;2023-11-21T01:54:33;9.74;54.21
77467;DHT22;66564;42.482;25.548;2023-11-21T01:56:59;9.71;54.25
77467;DHT22;66564;42.482;25.548;2023-11-21T01:59:35;9.68;54.29
77467;DHT22;66564;42.482;25.548;2023-11-21T02:02:03;9.65;54.26
77467;DHT22;66564;42.482;25.548;2023-11-21T02:04:33;9.68;54.15
77467;DHT22;66564;42.482;25.548;2023-11-21T02:07:00;9.59;54.07
77467;DHT22;66564;42.482;25.548;2023-11-21T02:09:28;9.58;54.20
77467;DHT22;66564;42.482;25.548;2023-11-21T02:11:57;9.61;54.27
77467;DHT22;66564;42.482;25.548;2023-11-21T02:14:26;9.64;54.29
77467;DHT22;66564;42.482;25.548;2023-11-21T02:16:53;9.61;54.31
77467;DHT22;66564;42.482;25.548;2023-11-21T02:19:22;9.59;54.42
77467;DHT22;66564;42.482;25.548;2023-11-21T02:21:51;9.62;54.36
77467;DHT22;66564;42.482;25.548;2023-11-21T02:24:23;9.64;54.44
77467;DHT22;66564;42.482;25.548;2023-11-21T02:26:50;9.65;54.33
77467;DHT22;66564;42.482;25.548;2023-11-21T02:29:21;9.67;54.46
77467;DHT22;66564;42.482;25.548;2023-11-21T02:31:48;9.68;54.53
77467;DHT22;66564;42.482;25.548;2023-11-21T02:34:17;9.73;54.46
77467;DHT22;66564;42.482;25.548;2023-11-21T02:36:43;9.73;54.53
77467;DHT22;66564;42.482;25.548;2023-11-21T02:39:10;9.71;54.61
77467;DHT22;66564;42.482;25.548;2023-11-21T02:41:37;9.75;54.69
77467;DHT22;66564;42.482;25.548;2023-11-21T02:44:03;9.73;54.84
77467;DHT22;66564;42.482;25.548;2023-11-21T02:46:28;9.70;54.77
77467;DHT22;66564;42.482;25.548;2023-11-21T02:48:54;9.65;54.68
77467;DHT22;66564;42.482;25.548;2023-11-21T02:51:20;9.61;54.58
77467;DHT22;66564;42.482;25.548;2023-11-21T02:53:45;9.61;54.81
77467;DHT22;66564;42.482;25.548;2023-11-21T02:56:12;9.55;55.09
77467;DHT22;66564;42.482;25.548;2023-11-21T02:58:44;9.52;55.22
77467;DHT22;66564;42.482;25.548;2023-11-21T03:01:11;9.52;55.11
77467;DHT22;66564;42.482;25.548;2023-11-21T03:03:37;9.48;55.34
77467;DHT22;66564;42.482;25.548;2023-11-21T03:06:06;9.45;55.51
77467;DHT22;66564;42.482;25.548;2023-11-21T03:08:32;9.50;55.53
77467;DHT22;66564;42.482;25.548;2023-11-21T03:10:58;9.50;55.48
77467;DHT22;66564;42.482;25.548;2023-11-21T03:13:23;9.51;55.45
77467;DHT22;66564;42.482;25.548;2023-11-21T03:15:49;9.52;55.47
77467;DHT22;66564;42.482;25.548;2023-11-21T03:18:15;9.48;55.34
77467;DHT22;66564;42.482;25.548;2023-11-21T03:20:40;9.44;55.57
77467;DHT22;66564;42.482;25.548;2023-11-21T03:23:06;9.38;55.74
77467;DHT22;66564;42.482;25.548;2023-11-21T03:25:32;9.38;55.86
77467;DHT22;66564;42.482;25.548;2023-11-21T03:27:57;9.41;55.83
77467;DHT22;66564;42.482;25.548;2023-11-21T03:30:23;9.38;56.01
77467;DHT22;66564;42.482;25.548;2023-11-21T03:32:48;9.38;56.05
77467;DHT22;66564;42.482;25.548;2023-11-21T03:35:14;9.34;56.19
77467;DHT22;66564;42.482;25.548;2023-11-21T03:37:39;9.33;56.17
77467;DHT22;66564;42.482;25.548;2023-11-21T03:40:07;9.28;56.18
77467;DHT22;66564;42.482;25.548;2023-11-21T03:42:38;9.23;56.44
77467;DHT22;66564;42.482;25.548;2023-11-21T03:45:04;9.26;56.39
77467;DHT22;66564;42.482;25.548;2023-11-21T03:47:30;9.21;56.43
77467;DHT22;66564;42.482;25.548;2023-11-21T03:49:55;9.19;56.51
77467;DHT22;66564;42.482;25.548;2023-11-21T03:52:21;9.14;56.57
77467;DHT22;66564;42.482;25.548;2023-11-21T03:54:46;9.10;56.48
77467;DHT22;66564;42.482;25.548;2023-11-21T03:57:12;9.07;56.71
77467;DHT22;66564;42.482;25.548;2023-11-21T03:59:41;9.07;56.87
77467;DHT22;66564;42.482;25.548;2023-11-21T04:02:07;9.03;57.07
77467;DHT22;66564;42.482;25.548;2023-11-21T04:04:33;9.04;57.09
77467;DHT22;66564;42.482;25.548;2023-11-21T04:06:59;9.00;56.90
77467;DHT22;66564;42.482;25.548;2023-11-21T04:09:24;9.01;56.93
77467;DHT22;66564;42.482;25.548;2023-11-21T04:11:51;9.00;57.02
77467;DHT22;66564;42.482;25.548;2023-11-21T04:14:17;8.99;57.02
77467;DHT22;66564;42.482;25.548;2023-11-21T04:16:42;9.01;56.88
77467;DHT22;66564;42.482;25.548;2023-11-21T04:19:08;9.00;56.62
77467;DHT22;66564;42.482;25.548;2023-11-21T04:21:40;8.94;56.72
77467;DHT22;66564;42.482;25.548;2023-11-21T04:24:06;8.94;56.97
77467;DHT22;66564;42.482;25.548;2023-11-21T04:26:32;8.97;56.86
77467;DHT22;66564;42.482;25.548;2023-11-21T04:28:57;9.03;56.80
77467;DHT22;66564;42.482;25.548;2023-11-21T04:31:22;9.03;56.46
77467;DHT22;66564;42.482;25.548;2023-11-21T04:33:48;9.07;56.37
77467;DHT22;66564;42.482;25.548;2023-11-21T04:36:14;9.09;56.17
77467;DHT22;66564;42.482;25.548;2023-11-21T04:38:39;9.10;56.01
77467;DHT22;66564;42.482;25.548;2023-11-21T04:41:06;9.07;56.26
77467;DHT22;66564;42.482;25.548;2023-11-21T04:43:31;9.09;56.19
77467;DHT22;66564;42.482;25.548;2023-11-21T04:45:57;9.10;55.67
77467;DHT22;66564;42.482;25.548;2023-11-21T04:48:22;9.17;55.44
77467;DHT22;66564;42.482;25.548;2023-11-21T04:50:48;9.17;55.89
77467;DHT22;66564;42.482;25.548;2023-11-21T04:53:13;9.16;55.05
77467;DHT22;66564;42.482;25.548;2023-11-21T04:55:40;8.99;55.77
77467;DHT22;66564;42.482;25.548;2023-11-21T04:58:06;8.90;55.85
77467;DHT22;66564;42.482;25.548;2023-11-21T05:00:33;8.84;56.04
77467;DHT22;66564;42.482;25.548;2023-11-21T05:02:59;8.77;56.18
77467;DHT22;66564;42.482;25.548;2023-11-21T05:05:26;8.73;56.29
77467;DHT22;66564;42.482;25.548;2023-11-21T05:07:52;8.75;57.07
77467;DHT22;66564;42.482;25.548;2023-11-21T05:10:19;8.75;57.04
77467;DHT22;66564;42.482;25.548;2023-11-21T05:12:45;8.73;56.99
77467;DHT22;66564;42.482;25.548;2023-11-21T05:15:14;8.70;57.30
77467;DHT22;66564;42.482;25.548;2023-11-21T05:17:40;8.75;57.23
77467;DHT22;66564;42.482;25.548;2023-11-21T05:20:32;8.72;58.11
77467;DHT22;66564;42.482;25.548;2023-11-21T05:22:58;8.69;58.28
77467;DHT22;66564;42.482;25.548;2023-11-21T05:25:24;8.69;58.60
77467;DHT22;66564;42.482;25.548;2023-11-21T05:27:50;8.70;58.51
77467;DHT22;66564;42.482;25.548;2023-11-21T05:30:15;8.70;58.83
77467;DHT22;66564;42.482;25.548;2023-11-21T05:32:41;8.70;58.93
77467;DHT22;66564;42.482;25.548;2023-11-21T05:35:09;8.73;59.29
77467;DHT22;66564;42.482;25.548;2023-11-21T05:37:39;8.76;59.11
77467;DHT22;66564;42.482;25.548;2023-11-21T05:40:08;8.83;58.89
77467;DHT22;66564;42.482;25.548;2023-11-21T05:42:35;8.97;58.36
77467;DHT22;66564;42.482;25.548;2023-11-21T05:45:01;9.26;57.58
77467;DHT22;66564;42.482;25.548;2023-11-21T05:47:45;9.45;55.93
77467;DHT22;66564;42.482;25.548;2023-11-21T05:50:13;9.48;55.86
77467;DHT22;66564;42.482;25.548;2023-11-21T05:52:44;9.52;56.15
77467;DHT22;66564;42.482;25.548;2023-11-21T05:55:10;9.50;55.99
77467;DHT22;66564;42.482;25.548;2023-11-21T05:57:37;9.48;55.69
77467;DHT22;66564;42.482;25.548;2023-11-21T06:00:08;9.47;55.82
77467;DHT22;66564;42.482;25.548;2023-11-21T06:02:40;9.45;56.01
77467;DHT22;66564;42.482;25.548;2023-11-21T06:05:09;9.43;56.77
77467;DHT22;66564;42.482;25.548;2023-11-21T06:07:36;9.38;57.28
77467;DHT22;66564;42.482;25.548;2023-11-21T06:10:03;9.37;57.24
77467;DHT22;66564;42.482;25.548;2023-11-21T06:12:32;9.35;57.20
77467;DHT22;66564;42.482;25.548;2023-11-21T06:15:04;9.33;57.50
77467;DHT22;66564;42.482;25.548;2023-11-21T06:17:35;9.37;57.77
77467;DHT22;66564;42.482;25.548;2023-11-21T06:20:04;9.38;58.17
77467;DHT22;66564;42.482;25.548;2023-11-21T06:22:37;9.37;58.01
77467;DHT22;66564;42.482;25.548;2023-11-21T06:25:03;9.44;58.46
77467;DHT22;66564;42.482;25.548;2023-11-21T06:27:50;9.52;58.38
77467;DHT22;66564;42.482;25.548;2023-11-21T06:30:17;9.54;58.25
77467;DHT22;66564;42.482;25.548;2023-11-21T06:32:44;9.57;58.29
77467;DHT22;66564;42.482;25.548;2023-11-21T06:35:11;9.68;58.03
77467;DHT22;66564;42.482;25.548;2023-11-21T06:37:37;9.79;57.22
77467;DHT22;66564;42.482;25.548;2023-11-21T06:40:03;9.99;57.15
77467;DHT22;66564;42.482;25.548;2023-11-21T06:42:32;10.28;56.20
77467;DHT22;66564;42.482;25.548;2023-11-21T06:44:58;10.43;55.35
77467;DHT22;66564;42.482;25.548;2023-11-21T06:47:25;10.55;54.29
77467;DHT22;66564;42.482;25.548;2023-11-21T06:49:51;10.73;53.73
77467;DHT22;66564;42.482;25.548;2023-11-21T06:52:17;10.90;53.61
77467;DHT22;66564;42.482;25.548;2023-11-21T06:54:43;11.14;53.61
77467;DHT22;66564;42.482;25.548;2023-11-21T06:57:09;11.52;52.89
77467;DHT22;66564;42.482;25.548;2023-11-21T06:59:34;11.88;51.03
77467;DHT22;66564;42.482;25.548;2023-11-21T07:02:00;12.08;50.74
77467;DHT22;66564;42.482;25.548;2023-11-21T07:04:25;12.26;49.54
77467;DHT22;66564;42.482;25.548;2023-11-21T07:06:53;12.37;49.61
77467;DHT22;66564;42.482;25.548;2023-11-21T07:09:18;12.57;49.54
77467;DHT22;66564;42.482;25.548;2023-11-21T07:11:47;12.83;49.78
77467;DHT22;66564;42.482;25.548;2023-11-21T07:14:14;13.14;48.54
77467;DHT22;66564;42.482;25.548;2023-11-21T07:16:39;13.44;47.53
77467;DHT22;66564;42.482;25.548;2023-11-21T07:19:06;13.69;46.44
77467;DHT22;66564;42.482;25.548;2023-11-21T07:21:32;14.20;45.42
77467;DHT22;66564;42.482;25.548;2023-11-21T07:24:00;14.55;43.23
77467;DHT22;66564;42.482;25.548;2023-11-21T07:26:26;14.73;43.18
77467;DHT22;66564;42.482;25.548;2023-11-21T07:28:52;14.84;44.27
77467;DHT22;66564;42.482;25.548;2023-11-21T07:31:18;15.11;43.17
77467;DHT22;66564;42.482;25.548;2023-11-21T07:33:44;15.25;44.25
77467;DHT22;66564;42.482;25.548;2023-11-21T07:36:13;15.45;44.90
77467;DHT22;66564;42.482;25.548;2023-11-21T07:38:38;15.65;44.15
77467;DHT22;66564;42.482;25.548;2023-11-21T07:41:07;15.82;44.30
77467;DHT22;66564;42.482;25.548;2023-11-21T07:43:35;16.06;43.47
77467;DHT22;66564;42.482;25.548;2023-11-21T07:46:02;16.14;42.72
77467;DHT22;66564;42.482;25.548;2023-11-21T07:48:30;16.07;42.20
77467;DHT22;66564;42.482;25.548;2023-11-21T07:50:57;16.12;42.46
77467;DHT22;66564;42.482;25.548;2023-11-21T07:53:24;16.21;42.28
77467;DHT22;66564;42.482;25.548;2023-11-21T07:55:51;16.47;41.37
77467;DHT22;66564;42.482;25.548;2023-11-21T07:58:16;16.60;41.42
77467;DHT22;66564;42.482;25.548;2023-11-21T08:00:42;16.60;40.44
77467;DHT22;66564;42.482;25.548;2023-11-21T08:03:07;16.54;40.63
77467;DHT22;66564;42.482;25.548;2023-11-21T08:05:33;16.72;40.13
77467;DHT22;66564;42.482;25.548;2023-11-21T08:07:58;16.63;40.61
77467;DHT22;66564;42.482;25.548;2023-11-21T08:10:24;16.61;40.52
77467;DHT22;66564;42.482;25.548;2023-11-21T08:12:50;16.74;40.93
77467;DHT22;66564;42.482;25.548;2023-11-21T08:15:16;16.88;40.38
77467;DHT22;66564;42.482;25.548;2023-11-21T08:17:41;16.98;39.77
77467;DHT22;66564;42.482;25.548;2023-11-21T08:20:07;16.82;39.73
77467;DHT22;66564;42.482;25.548;2023-11-21T08:22:33;16.89;39.69
77467;DHT22;66564;42.482;25.548;2023-11-21T08:24:59;16.91;39.67
77467;DHT22;66564;42.482;25.548;2023-11-21T08:27:25;16.94;40.05
77467;DHT22;66564;42.482;25.548;2023-11-21T08:29:50;16.91;39.12
77467;DHT22;66564;42.482;25.548;2023-11-21T08:32:17;16.92;39.27
77467;DHT22;66564;42.482;25.548;2023-11-21T08:34:43;16.81;39.53
77467;DHT22;66564;42.482;25.548;2023-11-21T08:37:10;16.98;40.08
77467;DHT22;66564;42.482;25.548;2023-11-21T08:39:37;17.04;39.70
77467;DHT22;66564;42.482;25.548;2023-11-21T08:42:03;17.08;39.36
77467;DHT22;66564;42.482;25.548;2023-11-21T08:44:29;17.18;39.54
77467;DHT22;66564;42.482;25.548;2023-11-21T08:46:55;17.35;39.11
77467;DHT22;66564;42.482;25.548;2023-11-21T08:49:21;17.48;38.66
77467;DHT22;66564;42.482;25.548;2023-11-21T08:51:46;17.42;38.84
77467;DHT22;66564;42.482;25.548;2023-11-21T08:54:12;17.58;39.06
77467;DHT22;66564;42.482;25.548;2023-11-21T08:56:37;17.62;39.68
77467;DHT22;66564;42.482;25.548;2023-11-21T08:59:03;17.68;39.50
77467;DHT22;66564;42.482;25.548;2023-11-21T09:01:29;17.78;39.46
77467;DHT22;66564;42.482;25.548;2023-11-21T09:03:58;17.85;40.14
77467;DHT22;66564;42.482;25.548;2023-11-21T09:06:24;17.87;40.70
77467;DHT22;66564;42.482;25.548;2023-11-21T09:08:49;17.93;39.99
77467;DHT22;66564;42.482;25.548;2023-11-21T09:11:15;17.83;40.12
77467;DHT22;66564;42.482;25.548;2023-11-21T09:13:41;17.83;41.92
77467;DHT22;66564;42.482;25.548;2023-11-21T09:16:06;17.87;42.59
77467;DHT22;66564;42.482;25.548;2023-11-21T09:18:32;18.14;43.63
77467;DHT22;66564;42.482;25.548;2023-11-21T09:20:57;18.38;44.94
77467;DHT22;66564;42.482;25.548;2023-11-21T09:23:24;18.27;44.79
77467;DHT22;66564;42.482;25.548;2023-11-21T09:25:49;18.21;45.30
77467;DHT22;66564;42.482;25.548;2023-11-21T09:28:17;18.23;45.39
77467;DHT22;66564;42.482;25.548;2023-11-21T09:30:43;18.30;45.13
77467;DHT22;66564;42.482;25.548;2023-11-21T09:33:09;18.40;44.91
77467;DHT22;66564;42.482;25.548;2023-11-21T09:35:37;18.48;45.19
77467;DHT22;66564;42.482;25.548;2023-11-21T09:38:03;18.65;44.87
77467;DHT22;66564;42.482;25.548;2023-11-21T09:40:35;18.68;44.94
77467;DHT22;66564;42.482;25.548;2023-11-21T09:43:06;18.54;44.76
77467;DHT22;66564;42.482;25.548;2023-11-21T09:45:35;18.48;45.29
77467;DHT22;66564;42.482;25.548;2023-11-21T09:48:01;18.43;45.31
77467;DHT22;66564;42.482;25.548;2023-11-21T09:50:27;18.26;45.92
77467;DHT22;66564;42.482;25.548;2023-11-21T09:55:43;17.59;47.05
77467;DHT22;66564;42.482;25.548;2023-11-21T09:58:10;17.59;46.86
77467;DHT22;66564;42.482;25.548;2023-11-21T10:00:47;17.43;47.26
77467;DHT22;66564;42.482;25.548;2023-11-21T10:03:13;17.42;46.81
77467;DHT22;66564;42.482;25.548;2023-11-21T10:05:40;17.45;47.32
77467;DHT22;66564;42.482;25.548;2023-11-21T10:08:10;17.46;46.89
77467;DHT22;66564;42.482;25.548;2023-11-21T10:10:37;17.45;46.09
77467;DHT22;66564;42.482;25.548;2023-11-21T10:13:05;17.40;46.15
77467;DHT22;66564;42.482;25.548;2023-11-21T10:15:33;17.26;46.78
77467;DHT22;66564;42.482;25.548;2023-11-21T10:18:04;17.26;47.04
77467;DHT22;66564;42.482;25.548;2023-11-21T10:20:31;17.15;47.32
77467;DHT22;66564;42.482;25.548;2023-11-21T10:22:59;17.14;46.61
77467;DHT22;66564;42.482;25.548;2023-11-21T10:25:27;17.25;45.87
77467;DHT22;66564;42.482;25.548;2023-11-21T10:27:58;17.08;46.06
77467;DHT22;66564;42.482;25.548;2023-11-21T10:30:38;16.87;46.48
77467;DHT22;66564;42.482;25.548;2023-11-21T10:33:05;16.78;47.22
77467;DHT22;66564;42.482;25.548;2023-11-21T10:35:47;16.74;47.48
77467;DHT22;66564;42.482;25.548;2023-11-21T10:38:18;16.81;47.07
77467;DHT22;66564;42.482;25.548;2023-11-21T10:40:46;16.80;47.47
77467;DHT22;66564;42.482;25.548;2023-11-21T10:43:13;16.81;47.47
77467;DHT22;66564;42.482;25.548;2023-11-21T10:45:40;16.72;47.59
77467;DHT22;66564;42.482;25.548;2023-11-21T10:48:06;16.77;47.55
77467;DHT22;66564;42.482;25.548;2023-11-21T10:50:36;16.80;48.13
77467;DHT22;66564;42.482;25.548;2023-11-21T10:53:03;16.94;47.24
77467;DHT22;66564;42.482;25.548;2023-11-21T10:55:30;17.00;46.96
77467;DHT22;66564;42.482;25.548;2023-11-21T10:58:04;17.08;46.56
77467;DHT22;66564;42.482;25.548;2023-11-21T11:00:33;17.01;46.53
77467;DHT22;66564;42.482;25.548;2023-11-21T11:02:59;16.94;46.94
77467;DHT22;66564;42.482;25.548;2023-11-21T11:05:27;16.88;46.93
77467;DHT22;66564;42.482;25.548;2023-11-21T11:08:08;16.88;46.89
77467;DHT22;66564;42.482;25.548;2023-11-21T11:10:34;16.78;46.96
77467;DHT22;66564;42.482;25.548;2023-11-21T11:13:00;16.72;46.91
77467;DHT22;66564;42.482;25.548;2023-11-21T11:15:27;16.50;47.31
77467;DHT22;66564;42.482;25.548;2023-11-21T11:17:53;16.44;47.25
77467;DHT22;66564;42.482;25.548;2023-11-21T11:20:22;16.34;47.65
77467;DHT22;66564;42.482;25.548;2023-11-21T11:28:07;16.19;48.18
77467;DHT22;66564;42.482;25.548;2023-11-21T11:30:49;16.09;48.43
77467;DHT22;66564;42.482;25.548;2023-11-21T11:36:00;16.07;48.93
77467;DHT22;66564;42.482;25.548;2023-11-21T11:38:31;15.97;49.16
77467;DHT22;66564;42.482;25.548;2023-11-21T11:41:02;15.81;49.62
77467;DHT22;66564;42.482;25.548;2023-11-21T11:43:31;15.85;49.67
77467;DHT22;66564;42.482;25.548;2023-11-21T11:46:10;15.81;49.94
77467;DHT22;66564;42.482;25.548;2023-11-21T11:48:41;15.83;50.19
77467;DHT22;66564;42.482;25.548;2023-11-21T11:51:19;15.96;49.92
77467;DHT22;66564;42.482;25.548;2023-11-21T11:53:49;15.89;50.28
77467;DHT22;66564;42.482;25.548;2023-11-21T11:56:29;15.93;50.12
77467;DHT22;66564;42.482;25.548;2023-11-21T11:59:01;15.96;50.09
77467;DHT22;66564;42.482;25.548;2023-11-21T12:01:37;15.95;49.82
77467;DHT22;66564;42.482;25.548;2023-11-21T12:06:42;15.86;50.52
77467;DHT22;66564;42.482;25.548;2023-11-21T12:09:21;15.86;50.36
77467;DHT22;66564;42.482;25.548;2023-11-21T12:11:47;15.92;49.95
77467;DHT22;66564;42.482;25.548;2023-11-21T12:14:13;15.95;49.98
77467;DHT22;66564;42.482;25.548;2023-11-21T12:16:39;15.95;50.04
77467;DHT22;66564;42.482;25.548;2023-11-21T12:19:42;15.83;50.41
77467;DHT22;66564;42.482;25.548;2023-11-21T12:22:08;15.75;50.48
77467;DHT22;66564;42.482;25.548;2023-11-21T12:24:34;15.62;51.20
77467;DHT22;66564;42.482;25.548;2023-11-21T12:27:00;15.59;51.06
77467;DHT22;66564;42.482;25.548;2023-11-21T12:29:25;15.49;51.43
77467;DHT22;66564;42.482;25.548;2023-11-21T12:31:51;15.41;52.07
77467;DHT22;66564;42.482;25.548;2023-11-21T12:34:16;15.39;52.17
77467;DHT22;66564;42.482;25.548;2023-11-21T12:36:43;15.30;52.40
77467;DHT22;66564;42.482;25.548;2023-11-21T12:39:09;15.15;52.67
77467;DHT22;66564;42.482;25.548;2023-11-21T12:41:35;15.07;53.27
77467;DHT22;66564;42.482;25.548;2023-11-21T12:44:01;15.05;53.71
77467;DHT22;66564;42.482;25.548;2023-11-21T12:46:27;15.04;54.15
77467;DHT22;66564;42.482;25.548;2023-11-21T12:48:58;15.01;54.22
77467;DHT22;66564;42.482;25.548;2023-11-21T12:51:23;15.07;54.03
77467;DHT22;66564;42.482;25.548;2023-11-21T12:53:49;15.12;53.83
77467;DHT22;66564;42.482;25.548;2023-11-21T12:56:15;15.10;53.93
77467;DHT22;66564;42.482;25.548;2023-11-21T12:58:44;15.04;54.38
77467;DHT22;66564;42.482;25.548;2023-11-21T13:01:13;14.97;54.87
77467;DHT22;66564;42.482;25.548;2023-11-21T13:03:43;15.02;54.83
77467;DHT22;66564;42.482;25.548;2023-11-21T13:06:10;15.01;54.65
77467;DHT22;66564;42.482;25.548;2023-11-21T13:08:38;14.87;55.39
77467;DHT22;66564;42.482;25.548;2023-11-21T13:11:06;14.80;55.46
77467;DHT22;66564;42.482;25.548;2023-11-21T13:13:32;14.73;55.68
77467;DHT22;66564;42.482;25.548;2023-11-21T13:16:00;14.59;56.27
77467;DHT22;66564;42.482;25.548;2023-11-21T13:18:27;14.57;56.40
77467;DHT22;66564;42.482;25.548;2023-11-21T13:20:58;14.53;56.61
77467;DHT22;66564;42.482;25.548;2023-11-21T13:23:25;14.51;56.61
77467;DHT22;66564;42.482;25.548;2023-11-21T13:25:52;14.48;56.78
77467;DHT22;66564;42.482;25.548;2023-11-21T13:28:18;14.37;56.95
77467;DHT22;66564;42.482;25.548;2023-11-21T13:30:46;14.38;56.90
77467;DHT22;66564;42.482;25.548;2023-11-21T13:33:13;14.30;57.02
77467;DHT22;66564;42.482;25.548;2023-11-21T13:35:44;14.29;57.02
77467;DHT22;66564;42.482;25.548;2023-11-21T13:38:19;14.30;71.08
77467;DHT22;66564;42.482;25.548;2023-11-21T13:40:52;14.44;73.87
77467;DHT22;66564;42.482;25.548;2023-11-21T13:43:23;14.43;68.70
77467;DHT22;66564;42.482;25.548;2023-11-21T13:45:51;14.50;66.87
77467;DHT22;66564;42.482;25.548;2023-11-21T13:48:25;14.55;65.03
77467;DHT22;66564;42.482;25.548;2023-11-21T13:50:59;14.48;66.97
77467;DHT22;66564;42.482;25.548;2023-11-21T13:53:46;14.47;67.82
77467;DHT22;66564;42.482;25.548;2023-11-21T13:56:24;14.56;65.63
77467;DHT22;66564;42.482;25.548;2023-11-21T13:58:52;14.67;68.80
77467;DHT22;66564;42.482;25.548;2023-11-21T14:01:18;14.70;67.13
77467;DHT22;66564;42.482;25.548;2023-11-21T14:04:00;14.66;66.34
77467;DHT22;66564;42.482;25.548;2023-11-21T14:06:42;14.66;59.80
77467;DHT22;66564;42.482;25.548;2023-11-21T14:09:21;14.60;69.23
77467;DHT22;66564;42.482;25.548;2023-11-21T14:11:49;14.97;72.78
77467;DHT22;66564;42.482;25.548;2023-11-21T14:14:16;14.83;66.64
77467;DHT22;66564;42.482;25.548;2023-11-21T14:16:43;14.70;66.78
77467;DHT22;66564;42.482;25.548;2023-11-21T14:19:10;14.71;67.12
77467;DHT22;66564;42.482;25.548;2023-11-21T14:21:41;14.70;69.01
77467;DHT22;66564;42.482;25.548;2023-11-21T14:24:14;14.70;68.79
77467;DHT22;66564;42.482;25.548;2023-11-21T14:26:45;14.66;67.65
77467;DHT22;66564;42.482;25.548;2023-11-21T14:29:14;14.67;70.69
77467;DHT22;66564;42.482;25.548;2023-11-21T14:31:45;14.61;66.64
77467;DHT22;66564;42.482;25.548;2023-11-21T14:34:10;14.59;68.34
77467;DHT22;66564;42.482;25.548;2023-11-21T14:36:40;14.56;66.93
77467;DHT22;66564;42.482;25.548;2023-11-21T14:39:06;14.53;68.29
77467;DHT22;66564;42.482;25.548;2023-11-21T14:41:45;14.46;68.51
77467;DHT22;66564;42.482;25.548;2023-11-21T14:44:11;14.40;66.81
77467;DHT22;66564;42.482;25.548;2023-11-21T14:46:38;14.43;70.05
77467;DHT22;66564;42.482;25.548;2023-11-21T14:49:08;14.53;70.89
77467;DHT22;66564;42.482;25.548;2023-11-21T14:51:54;14.40;69.45
77467;DHT22;66564;42.482;25.548;2023-11-21T14:54:22;14.43;72.59
77467;DHT22;66564;42.482;25.548;2023-11-21T14:57:08;14.33;60.49
77467;DHT22;66564;42.482;25.548;2023-11-21T14:59:49;14.90;73.64
77467;DHT22;66564;42.482;25.548;2023-11-21T15:02:18;14.64;62.55
77467;DHT22;66564;42.482;25.548;2023-11-21T15:04:50;14.41;67.44
77467;DHT22;66564;42.482;25.548;2023-11-21T15:07:26;14.29;68.15
77467;DHT22;66564;42.482;25.548;2023-11-21T15:09:52;14.16;68.64
77467;DHT22;66564;42.482;25.548;2023-11-21T15:12:19;14.03;68.93
77467;DHT22;66564;42.482;25.548;2023-11-21T15:14:49;13.93;71.41
77467;DHT22;66564;42.482;25.548;2023-11-21T15:17:18;13.87;71.15
77467;DHT22;66564;42.482;25.548;2023-11-21T15:19:52;13.78;68.84
77467;DHT22;66564;42.482;25.548;2023-11-21T15:22:19;13.79;71.95
77467;DHT22;66564;42.482;25.548;2023-11-21T15:24:44;13.81;71.18
77467;DHT22;66564;42.482;25.548;2023-11-21T15:27:13;13.72;71.35
77467;DHT22;66564;42.482;25.548;2023-11-21T15:29:39;13.71;70.85
77467;DHT22;66564;42.482;25.548;2023-11-21T15:32:08;13.66;71.56
77467;DHT22;66564;42.482;25.548;2023-11-21T15:34:35;13.62;71.73
77467;DHT22;66564;42.482;25.548;2023-11-21T15:37:01;13.49;63.59
77467;DHT22;66564;42.482;25.548;2023-11-21T15:39:28;13.49;63.28